sensor_id;sensor_type;location;lat;lon;timestamp;P1;durP1;ratioP1;P2;durP2;ratioP2
75096;SDS011;63684;47.964;11.186;2023-07-09T00:02:19;5.80;;;4.27;;
75096;SDS011;63684;47.964;11.186;2023-07-09T00:04:45;6.53;;;4.22;;
75096;SDS011;63684;47.964;11.186;2023-07-09T00:07:30;8.15;;;5.03;;
75096;SDS011;63684;47.964;11.186;2023-07-09T00:09:57;7.85;;;4.40;;
75096;SDS011;63684;47.964;11.186;2023-07-09T00:12:23;7.82;;;4.80;;
75096;SDS011;63684;47.964;11.186;2023-07-09T00:14:49;9.18;;;4.85;;
75096;SDS011;63684;47.964;11.186;2023-07-09T00:17:32;6.57;;;4.40;;
75096;SDS011;63684;47.964;11.186;2023-07-09T00:19:59;9.57;;;3.97;;
75096;SDS011;63684;47.964;11.186;2023-07-09T00:22:25;5.22;;;3.80;;
75096;SDS011;63684;47.964;11.186;2023-07-09T00:24:54;8.93;;;5.10;;
75096;SDS011;63684;47.964;11.186;2023-07-09T00:27:22;6.65;;;4.05;;
75096;SDS011;63684;47.964;11.186;2023-07-09T00:29:51;6.33;;;4.30;;
75096;SDS011;63684;47.964;11.186;2023-07-09T00:32:18;8.93;;;4.63;;
75096;SDS011;63684;47.964;11.186;2023-07-09T00:34:48;6.10;;;4.30;;
75096;SDS011;63684;47.964;11.186;2023-07-09T00:37:21;8.75;;;4.70;;
75096;SDS011;63684;47.964;11.186;2023-07-09T00:39:50;6.00;;;4.20;;
75096;SDS011;63684;47.964;11.186;2023-07-09T00:42:20;6.93;;;4.10;;
75096;SDS011;63684;47.964;11.186;2023-07-09T00:44:47;10.33;;;4.53;;
75096;SDS011;63684;47.964;11.186;2023-07-09T00:52:52;9.00;;;4.27;;
75096;SDS011;63684;47.964;11.186;2023-07-09T00:55:22;7.57;;;4.67;;
75096;SDS011;63684;47.964;11.186;2023-07-09T00:57:49;9.87;;;4.70;;
75096;SDS011;63684;47.964;11.186;2023-07-09T01:00:21;10.20;;;4.80;;
75096;SDS011;63684;47.964;11.186;2023-07-09T01:02:50;6.47;;;3.97;;
75096;SDS011;63684;47.964;11.186;2023-07-09T01:05:16;6.77;;;4.50;;
75096;SDS011;63684;47.964;11.186;2023-07-09T01:07:42;6.27;;;4.23;;
75096;SDS011;63684;47.964;11.186;2023-07-09T01:10:11;6.20;;;4.47;;
75096;SDS011;63684;47.964;11.186;2023-07-09T01:12:39;7.70;;;4.40;;
75096;SDS011;63684;47.964;11.186;2023-07-09T01:15:04;5.73;;;4.10;;
75096;SDS011;63684;47.964;11.186;2023-07-09T01:17:33;5.13;;;4.03;;
75096;SDS011;63684;47.964;11.186;2023-07-09T01:19:58;7.63;;;4.60;;
75096;SDS011;63684;47.964;11.186;2023-07-09T01:22:24;6.43;;;4.50;;
75096;SDS011;63684;47.964;11.186;2023-07-09T01:27:39;8.57;;;4.70;;
75096;SDS011;63684;47.964;11.186;2023-07-09T01:30:08;6.87;;;4.37;;
75096;SDS011;63684;47.964;11.186;2023-07-09T01:32:36;9.03;;;4.30;;
75096;SDS011;63684;47.964;11.186;2023-07-09T01:35:03;7.77;;;4.97;;
75096;SDS011;63684;47.964;11.186;2023-07-09T01:37:32;5.53;;;4.27;;
75096;SDS011;63684;47.964;11.186;2023-07-09T01:40:03;6.53;;;4.30;;
75096;SDS011;63684;47.964;11.186;2023-07-09T01:42:32;5.37;;;3.57;;
75096;SDS011;63684;47.964;11.186;2023-07-09T01:44:57;5.47;;;4.23;;
75096;SDS011;63684;47.964;11.186;2023-07-09T01:47:23;7.90;;;4.20;;
75096;SDS011;63684;47.964;11.186;2023-07-09T01:49:49;5.40;;;4.20;;
75096;SDS011;63684;47.964;11.186;2023-07-09T01:52:15;5.70;;;3.80;;
75096;SDS011;63684;47.964;11.186;2023-07-09T01:54:44;11.57;;;4.40;;
75096;SDS011;63684;47.964;11.186;2023-07-09T01:57:28;8.27;;;4.67;;
75096;SDS011;63684;47.964;11.186;2023-07-09T01:59:59;6.43;;;3.70;;
75096;SDS011;63684;47.964;11.186;2023-07-09T02:02:25;7.40;;;4.63;;
75096;SDS011;63684;47.964;11.186;2023-07-09T02:04:53;5.50;;;4.00;;
75096;SDS011;63684;47.964;11.186;2023-07-09T02:07:21;6.63;;;4.20;;
75096;SDS011;63684;47.964;11.186;2023-07-09T02:09:48;8.67;;;4.17;;
75096;SDS011;63684;47.964;11.186;2023-07-09T02:12:14;6.00;;;4.53;;
75096;SDS011;63684;47.964;11.186;2023-07-09T02:14:42;8.10;;;4.03;;
75096;SDS011;63684;47.964;11.186;2023-07-09T02:17:08;6.40;;;4.63;;
75096;SDS011;63684;47.964;11.186;2023-07-09T02:19:34;6.63;;;4.30;;
75096;SDS011;63684;47.964;11.186;2023-07-09T02:22:00;8.73;;;4.40;;
75096;SDS011;63684;47.964;11.186;2023-07-09T02:24:26;7.07;;;4.17;;
75096;SDS011;63684;47.964;11.186;2023-07-09T02:26:55;5.30;;;4.10;;
75096;SDS011;63684;47.964;11.186;2023-07-09T02:29:22;6.73;;;4.40;;
75096;SDS011;63684;47.964;11.186;2023-07-09T02:31:49;9.20;;;5.20;;
75096;SDS011;63684;47.964;11.186;2023-07-09T02:34:15;7.00;;;4.40;;
75096;SDS011;63684;47.964;11.186;2023-07-09T02:36:41;8.67;;;4.43;;
75096;SDS011;63684;47.964;11.186;2023-07-09T02:39:11;9.47;;;3.80;;
75096;SDS011;63684;47.964;11.186;2023-07-09T02:41:38;8.47;;;4.37;;
75096;SDS011;63684;47.964;11.186;2023-07-09T02:44:04;10.73;;;4.97;;
75096;SDS011;63684;47.964;11.186;2023-07-09T02:46:31;11.60;;;4.60;;
75096;SDS011;63684;47.964;11.186;2023-07-09T02:48:56;10.80;;;6.20;;
75096;SDS011;63684;47.964;11.186;2023-07-09T02:51:23;5.93;;;4.63;;
75096;SDS011;63684;47.964;11.186;2023-07-09T02:53:49;7.53;;;6.67;;
75096;SDS011;63684;47.964;11.186;2023-07-09T02:56:14;8.97;;;6.20;;
75096;SDS011;63684;47.964;11.186;2023-07-09T02:58:40;7.47;;;5.27;;
75096;SDS011;63684;47.964;11.186;2023-07-09T03:01:05;5.93;;;4.17;;
75096;SDS011;63684;47.964;11.186;2023-07-09T03:03:31;6.97;;;4.73;;
75096;SDS011;63684;47.964;11.186;2023-07-09T03:05:57;4.87;;;4.37;;
75096;SDS011;63684;47.964;11.186;2023-07-09T03:08:22;7.50;;;4.57;;
75096;SDS011;63684;47.964;11.186;2023-07-09T03:10:47;11.13;;;4.30;;
75096;SDS011;63684;47.964;11.186;2023-07-09T03:13:13;7.60;;;4.83;;
75096;SDS011;63684;47.964;11.186;2023-07-09T03:15:38;9.23;;;4.20;;
75096;SDS011;63684;47.964;11.186;2023-07-09T03:18:04;4.97;;;3.90;;
75096;SDS011;63684;47.964;11.186;2023-07-09T03:20:29;8.27;;;4.17;;
75096;SDS011;63684;47.964;11.186;2023-07-09T03:22:54;6.27;;;3.90;;
75096;SDS011;63684;47.964;11.186;2023-07-09T03:25:20;6.30;;;4.03;;
75096;SDS011;63684;47.964;11.186;2023-07-09T03:27:49;7.57;;;4.83;;
75096;SDS011;63684;47.964;11.186;2023-07-09T03:30:14;10.40;;;4.20;;
75096;SDS011;63684;47.964;11.186;2023-07-09T03:32:39;5.33;;;4.37;;
75096;SDS011;63684;47.964;11.186;2023-07-09T03:35:05;4.93;;;3.60;;
75096;SDS011;63684;47.964;11.186;2023-07-09T03:37:31;8.33;;;4.40;;
75096;SDS011;63684;47.964;11.186;2023-07-09T03:39:56;9.03;;;4.00;;
75096;SDS011;63684;47.964;11.186;2023-07-09T03:42:22;10.57;;;4.57;;
75096;SDS011;63684;47.964;11.186;2023-07-09T03:44:47;7.57;;;3.97;;
75096;SDS011;63684;47.964;11.186;2023-07-09T03:47:13;6.50;;;4.33;;
75096;SDS011;63684;47.964;11.186;2023-07-09T03:49:38;6.53;;;4.27;;
75096;SDS011;63684;47.964;11.186;2023-07-09T03:52:06;7.77;;;4.40;;
75096;SDS011;63684;47.964;11.186;2023-07-09T03:54:32;5.97;;;3.77;;
75096;SDS011;63684;47.964;11.186;2023-07-09T03:56:58;9.03;;;4.37;;
75096;SDS011;63684;47.964;11.186;2023-07-09T03:59:23;8.37;;;4.17;;
75096;SDS011;63684;47.964;11.186;2023-07-09T04:01:49;6.73;;;4.00;;
75096;SDS011;63684;47.964;11.186;2023-07-09T04:04:14;10.17;;;4.40;;
75096;SDS011;63684;47.964;11.186;2023-07-09T04:06:40;10.43;;;3.83;;
75096;SDS011;63684;47.964;11.186;2023-07-09T04:09:05;4.53;;;3.73;;
75096;SDS011;63684;47.964;11.186;2023-07-09T04:11:31;8.50;;;3.50;;
75096;SDS011;63684;47.964;11.186;2023-07-09T04:13:56;6.07;;;3.75;;
75096;SDS011;63684;47.964;11.186;2023-07-09T04:16:21;5.60;;;3.77;;
75096;SDS011;63684;47.964;11.186;2023-07-09T04:18:47;7.18;;;3.70;;
75096;SDS011;63684;47.964;11.186;2023-07-09T04:21:13;7.93;;;4.47;;
75096;SDS011;63684;47.964;11.186;2023-07-09T04:23:38;5.68;;;3.65;;
75096;SDS011;63684;47.964;11.186;2023-07-09T04:26:04;5.18;;;3.15;;
75096;SDS011;63684;47.964;11.186;2023-07-09T04:28:34;4.35;;;3.22;;
75096;SDS011;63684;47.964;11.186;2023-07-09T04:30:59;5.28;;;3.25;;
75096;SDS011;63684;47.964;11.186;2023-07-09T04:33:25;5.25;;;3.83;;
75096;SDS011;63684;47.964;11.186;2023-07-09T04:35:50;7.93;;;3.17;;
75096;SDS011;63684;47.964;11.186;2023-07-09T04:38:16;7.90;;;5.05;;
75096;SDS011;63684;47.964;11.186;2023-07-09T04:40:41;4.95;;;4.40;;
75096;SDS011;63684;47.964;11.186;2023-07-09T04:43:07;6.45;;;4.60;;
75096;SDS011;63684;47.964;11.186;2023-07-09T04:45:32;4.68;;;3.80;;
75096;SDS011;63684;47.964;11.186;2023-07-09T04:47:58;6.38;;;3.78;;
75096;SDS011;63684;47.964;11.186;2023-07-09T04:50:23;7.57;;;4.05;;
75096;SDS011;63684;47.964;11.186;2023-07-09T04:52:49;5.47;;;3.63;;
75096;SDS011;63684;47.964;11.186;2023-07-09T04:55:14;5.20;;;4.03;;
75096;SDS011;63684;47.964;11.186;2023-07-09T04:57:40;6.10;;;3.60;;
75096;SDS011;63684;47.964;11.186;2023-07-09T05:00:05;4.88;;;3.30;;
75096;SDS011;63684;47.964;11.186;2023-07-09T05:02:31;7.97;;;4.30;;
75096;SDS011;63684;47.964;11.186;2023-07-09T05:04:57;8.05;;;4.13;;
75096;SDS011;63684;47.964;11.186;2023-07-09T05:07:23;5.63;;;3.95;;
75096;SDS011;63684;47.964;11.186;2023-07-09T05:09:48;8.60;;;4.40;;
75096;SDS011;63684;47.964;11.186;2023-07-09T05:12:14;5.50;;;3.75;;
75096;SDS011;63684;47.964;11.186;2023-07-09T05:14:39;5.20;;;3.65;;
75096;SDS011;63684;47.964;11.186;2023-07-09T05:17:05;11.57;;;4.20;;
75096;SDS011;63684;47.964;11.186;2023-07-09T05:19:31;7.18;;;4.05;;
75096;SDS011;63684;47.964;11.186;2023-07-09T05:21:57;7.97;;;4.43;;
75096;SDS011;63684;47.964;11.186;2023-07-09T05:24:22;8.15;;;3.78;;
75096;SDS011;63684;47.964;11.186;2023-07-09T05:26:48;5.85;;;3.63;;
75096;SDS011;63684;47.964;11.186;2023-07-09T05:29:13;5.38;;;3.67;;
75096;SDS011;63684;47.964;11.186;2023-07-09T05:31:38;5.97;;;3.58;;
75096;SDS011;63684;47.964;11.186;2023-07-09T05:34:04;8.50;;;3.78;;
75096;SDS011;63684;47.964;11.186;2023-07-09T05:36:29;5.68;;;3.95;;
75096;SDS011;63684;47.964;11.186;2023-07-09T05:38:55;5.75;;;3.60;;
75096;SDS011;63684;47.964;11.186;2023-07-09T05:41:21;5.22;;;3.38;;
75096;SDS011;63684;47.964;11.186;2023-07-09T05:43:48;6.68;;;3.35;;
75096;SDS011;63684;47.964;11.186;2023-07-09T05:46:14;4.07;;;3.28;;
75096;SDS011;63684;47.964;11.186;2023-07-09T05:48:40;5.03;;;3.30;;
75096;SDS011;63684;47.964;11.186;2023-07-09T05:51:05;9.02;;;3.17;;
75096;SDS011;63684;47.964;11.186;2023-07-09T05:53:31;6.68;;;3.20;;
75096;SDS011;63684;47.964;11.186;2023-07-09T05:55:59;5.70;;;3.20;;
75096;SDS011;63684;47.964;11.186;2023-07-09T05:58:25;5.95;;;2.95;;
75096;SDS011;63684;47.964;11.186;2023-07-09T06:00:51;4.90;;;3.00;;
75096;SDS011;63684;47.964;11.186;2023-07-09T06:03:22;2.95;;;2.65;;
75096;SDS011;63684;47.964;11.186;2023-07-09T06:05:50;6.68;;;3.08;;
75096;SDS011;63684;47.964;11.186;2023-07-09T06:08:16;5.72;;;3.22;;
75096;SDS011;63684;47.964;11.186;2023-07-09T06:13:18;7.20;;;3.03;;
75096;SDS011;63684;47.964;11.186;2023-07-09T06:15:45;5.05;;;3.30;;
75096;SDS011;63684;47.964;11.186;2023-07-09T06:18:12;7.22;;;3.03;;
75096;SDS011;63684;47.964;11.186;2023-07-09T06:20:38;5.78;;;3.00;;
75096;SDS011;63684;47.964;11.186;2023-07-09T06:23:03;5.40;;;2.95;;
75096;SDS011;63684;47.964;11.186;2023-07-09T06:25:28;5.00;;;3.05;;
75096;SDS011;63684;47.964;11.186;2023-07-09T06:27:54;4.72;;;2.90;;
75096;SDS011;63684;47.964;11.186;2023-07-09T06:30:19;5.32;;;2.55;;
75096;SDS011;63684;47.964;11.186;2023-07-09T06:32:45;7.47;;;3.60;;
75096;SDS011;63684;47.964;11.186;2023-07-09T06:35:10;4.72;;;3.00;;
75096;SDS011;63684;47.964;11.186;2023-07-09T06:37:36;6.25;;;2.90;;
75096;SDS011;63684;47.964;11.186;2023-07-09T06:40:01;4.85;;;3.00;;
75096;SDS011;63684;47.964;11.186;2023-07-09T06:42:28;5.50;;;2.90;;
75096;SDS011;63684;47.964;11.186;2023-07-09T06:45:05;3.90;;;2.72;;
75096;SDS011;63684;47.964;11.186;2023-07-09T06:47:31;5.57;;;2.92;;
75096;SDS011;63684;47.964;11.186;2023-07-09T06:49:57;7.88;;;3.25;;
75096;SDS011;63684;47.964;11.186;2023-07-09T06:52:22;6.13;;;3.00;;
75096;SDS011;63684;47.964;11.186;2023-07-09T06:54:47;6.88;;;2.90;;
75096;SDS011;63684;47.964;11.186;2023-07-09T06:57:14;4.10;;;2.70;;
75096;SDS011;63684;47.964;11.186;2023-07-09T06:59:40;5.57;;;2.47;;
75096;SDS011;63684;47.964;11.186;2023-07-09T07:02:05;6.60;;;3.10;;
75096;SDS011;63684;47.964;11.186;2023-07-09T07:04:31;5.47;;;2.80;;
75096;SDS011;63684;47.964;11.186;2023-07-09T07:06:56;5.70;;;2.97;;
75096;SDS011;63684;47.964;11.186;2023-07-09T07:09:22;5.63;;;2.50;;
75096;SDS011;63684;47.964;11.186;2023-07-09T07:11:49;3.22;;;2.47;;
75096;SDS011;63684;47.964;11.186;2023-07-09T07:14:14;6.15;;;3.40;;
75096;SDS011;63684;47.964;11.186;2023-07-09T07:16:40;3.72;;;2.75;;
75096;SDS011;63684;47.964;11.186;2023-07-09T07:19:06;4.15;;;2.75;;
75096;SDS011;63684;47.964;11.186;2023-07-09T07:21:31;5.35;;;3.00;;
75096;SDS011;63684;47.964;11.186;2023-07-09T07:23:58;4.45;;;2.40;;
75096;SDS011;63684;47.964;11.186;2023-07-09T07:26:23;6.78;;;2.83;;
75096;SDS011;63684;47.964;11.186;2023-07-09T07:28:49;5.47;;;2.70;;
75096;SDS011;63684;47.964;11.186;2023-07-09T07:31:15;5.32;;;2.55;;
75096;SDS011;63684;47.964;11.186;2023-07-09T07:33:42;4.65;;;2.83;;
75096;SDS011;63684;47.964;11.186;2023-07-09T07:36:08;10.15;;;2.78;;
75096;SDS011;63684;47.964;11.186;2023-07-09T07:38:34;3.50;;;2.70;;
75096;SDS011;63684;47.964;11.186;2023-07-09T07:41:00;5.63;;;2.85;;
75096;SDS011;63684;47.964;11.186;2023-07-09T07:43:26;6.90;;;2.85;;
75096;SDS011;63684;47.964;11.186;2023-07-09T07:45:51;4.15;;;2.60;;
75096;SDS011;63684;47.964;11.186;2023-07-09T07:48:17;4.00;;;2.60;;
75096;SDS011;63684;47.964;11.186;2023-07-09T07:50:42;3.05;;;2.53;;
75096;SDS011;63684;47.964;11.186;2023-07-09T07:53:08;10.63;;;3.10;;
75096;SDS011;63684;47.964;11.186;2023-07-09T07:55:34;3.50;;;2.58;;
75096;SDS011;63684;47.964;11.186;2023-07-09T07:58:01;3.80;;;2.78;;
75096;SDS011;63684;47.964;11.186;2023-07-09T08:00:29;5.55;;;2.78;;
75096;SDS011;63684;47.964;11.186;2023-07-09T08:02:54;5.10;;;3.20;;
75096;SDS011;63684;47.964;11.186;2023-07-09T08:05:20;6.57;;;2.60;;
75096;SDS011;63684;47.964;11.186;2023-07-09T08:07:45;6.63;;;2.60;;
75096;SDS011;63684;47.964;11.186;2023-07-09T08:10:11;5.50;;;2.80;;
75096;SDS011;63684;47.964;11.186;2023-07-09T08:12:37;4.90;;;2.60;;
75096;SDS011;63684;47.964;11.186;2023-07-09T08:15:03;6.03;;;3.10;;
75096;SDS011;63684;47.964;11.186;2023-07-09T08:17:29;6.38;;;3.30;;
75096;SDS011;63684;47.964;11.186;2023-07-09T08:19:54;4.28;;;2.58;;
75096;SDS011;63684;47.964;11.186;2023-07-09T08:22:20;5.90;;;2.72;;
75096;SDS011;63684;47.964;11.186;2023-07-09T08:24:47;5.75;;;2.80;;
75096;SDS011;63684;47.964;11.186;2023-07-09T08:27:13;4.72;;;2.80;;
75096;SDS011;63684;47.964;11.186;2023-07-09T08:29:38;7.50;;;3.10;;
75096;SDS011;63684;47.964;11.186;2023-07-09T08:32:05;4.85;;;2.92;;
75096;SDS011;63684;47.964;11.186;2023-07-09T08:34:30;6.82;;;2.58;;
75096;SDS011;63684;47.964;11.186;2023-07-09T08:36:56;4.88;;;2.80;;
75096;SDS011;63684;47.964;11.186;2023-07-09T08:39:21;6.28;;;2.80;;
75096;SDS011;63684;47.964;11.186;2023-07-09T08:42:09;3.95;;;2.78;;
75096;SDS011;63684;47.964;11.186;2023-07-09T08:47:30;7.10;;;3.00;;
75096;SDS011;63684;47.964;11.186;2023-07-09T08:50:00;6.75;;;3.45;;
75096;SDS011;63684;47.964;11.186;2023-07-09T08:52:39;12.73;;;3.55;;
75096;SDS011;63684;47.964;11.186;2023-07-09T08:55:14;5.28;;;3.10;;
75096;SDS011;63684;47.964;11.186;2023-07-09T08:57:44;2.83;;;2.50;;
75096;SDS011;63684;47.964;11.186;2023-07-09T09:00:29;3.60;;;2.90;;
75096;SDS011;63684;47.964;11.186;2023-07-09T09:03:46;5.43;;;3.33;;
75096;SDS011;63684;47.964;11.186;2023-07-09T09:05:45;6.53;;;3.30;;
75096;SDS011;63684;47.964;11.186;2023-07-09T09:10:47;7.88;;;3.28;;
75096;SDS011;63684;47.964;11.186;2023-07-09T09:13:17;3.15;;;2.45;;
75096;SDS011;63684;47.964;11.186;2023-07-09T09:15:46;3.83;;;2.65;;
75096;SDS011;63684;47.964;11.186;2023-07-09T09:23:39;5.38;;;3.40;;
75096;SDS011;63684;47.964;11.186;2023-07-09T09:26:10;6.35;;;3.33;;
75096;SDS011;63684;47.964;11.186;2023-07-09T09:28:41;3.63;;;2.85;;
75096;SDS011;63684;47.964;11.186;2023-07-09T09:31:08;9.07;;;4.10;;
75096;SDS011;63684;47.964;11.186;2023-07-09T09:33:36;11.30;;;4.15;;
75096;SDS011;63684;47.964;11.186;2023-07-09T09:36:30;3.13;;;2.80;;
75096;SDS011;63684;47.964;11.186;2023-07-09T09:38:54;4.57;;;2.45;;
75096;SDS011;63684;47.964;11.186;2023-07-09T09:41:21;4.32;;;2.78;;
75096;SDS011;63684;47.964;11.186;2023-07-09T09:43:51;5.05;;;2.90;;
75096;SDS011;63684;47.964;11.186;2023-07-09T09:46:21;5.32;;;3.13;;
75096;SDS011;63684;47.964;11.186;2023-07-09T09:48:50;3.33;;;2.70;;
75096;SDS011;63684;47.964;11.186;2023-07-09T09:51:17;3.83;;;2.47;;
75096;SDS011;63684;47.964;11.186;2023-07-09T09:53:55;5.00;;;2.60;;
75096;SDS011;63684;47.964;11.186;2023-07-09T09:56:30;6.55;;;2.75;;
75096;SDS011;63684;47.964;11.186;2023-07-09T09:58:59;11.45;;;3.85;;
75096;SDS011;63684;47.964;11.186;2023-07-09T10:01:28;21.25;;;8.15;;
75096;SDS011;63684;47.964;11.186;2023-07-09T10:03:56;4.40;;;3.00;;
75096;SDS011;63684;47.964;11.186;2023-07-09T10:06:35;4.03;;;2.80;;
75096;SDS011;63684;47.964;11.186;2023-07-09T10:09:05;7.15;;;4.18;;
75096;SDS011;63684;47.964;11.186;2023-07-09T10:19:49;8.45;;;4.25;;
75096;SDS011;63684;47.964;11.186;2023-07-09T10:22:39;10.38;;;4.03;;
75096;SDS011;63684;47.964;11.186;2023-07-09T10:25:30;9.38;;;3.67;;
75096;SDS011;63684;47.964;11.186;2023-07-09T10:31:25;10.60;;;4.57;;
75096;SDS011;63684;47.964;11.186;2023-07-09T10:39:40;8.18;;;3.40;;
75096;SDS011;63684;47.964;11.186;2023-07-09T10:42:11;7.28;;;3.42;;
75096;SDS011;63684;47.964;11.186;2023-07-09T10:44:41;4.65;;;2.88;;
75096;SDS011;63684;47.964;11.186;2023-07-09T10:47:13;7.82;;;3.50;;
75096;SDS011;63684;47.964;11.186;2023-07-09T10:49:51;7.10;;;2.88;;
75096;SDS011;63684;47.964;11.186;2023-07-09T11:00:20;4.05;;;2.70;;
75096;SDS011;63684;47.964;11.186;2023-07-09T11:02:58;6.47;;;3.25;;
75096;SDS011;63684;47.964;11.186;2023-07-09T11:05:25;4.40;;;2.78;;
75096;SDS011;63684;47.964;11.186;2023-07-09T11:07:52;6.53;;;2.88;;
75096;SDS011;63684;47.964;11.186;2023-07-09T11:13:07;5.68;;;2.80;;
75096;SDS011;63684;47.964;11.186;2023-07-09T11:15:38;7.32;;;3.22;;
75096;SDS011;63684;47.964;11.186;2023-07-09T11:18:07;5.70;;;3.38;;
75096;SDS011;63684;47.964;11.186;2023-07-09T11:20:36;4.32;;;2.88;;
75096;SDS011;63684;47.964;11.186;2023-07-09T11:23:07;4.70;;;2.92;;
75096;SDS011;63684;47.964;11.186;2023-07-09T11:25:44;5.30;;;2.97;;
75096;SDS011;63684;47.964;11.186;2023-07-09T11:28:12;8.82;;;4.38;;
75096;SDS011;63684;47.964;11.186;2023-07-09T11:30:51;3.90;;;2.72;;
75096;SDS011;63684;47.964;11.186;2023-07-09T11:33:19;4.25;;;2.63;;
75096;SDS011;63684;47.964;11.186;2023-07-09T11:35:53;5.78;;;2.92;;
75096;SDS011;63684;47.964;11.186;2023-07-09T11:38:23;3.60;;;2.70;;
75096;SDS011;63684;47.964;11.186;2023-07-09T11:40:51;3.63;;;2.97;;
75096;SDS011;63684;47.964;11.186;2023-07-09T11:43:26;4.50;;;2.95;;
75096;SDS011;63684;47.964;11.186;2023-07-09T11:45:52;5.18;;;3.50;;
75096;SDS011;63684;47.964;11.186;2023-07-09T11:50:50;4.88;;;2.50;;
75096;SDS011;63684;47.964;11.186;2023-07-09T11:56:07;6.30;;;2.97;;
75096;SDS011;63684;47.964;11.186;2023-07-09T11:58:33;5.25;;;3.22;;
75096;SDS011;63684;47.964;11.186;2023-07-09T12:00:58;7.93;;;2.63;;
75096;SDS011;63684;47.964;11.186;2023-07-09T12:05:56;4.95;;;2.65;;
75096;SDS011;63684;47.964;11.186;2023-07-09T12:08:33;5.00;;;2.60;;
75096;SDS011;63684;47.964;11.186;2023-07-09T12:11:00;4.43;;;2.50;;
75096;SDS011;63684;47.964;11.186;2023-07-09T12:13:26;4.03;;;2.70;;
75096;SDS011;63684;47.964;11.186;2023-07-09T12:15:51;7.47;;;2.97;;
75096;SDS011;63684;47.964;11.186;2023-07-09T12:18:17;5.20;;;3.03;;
75096;SDS011;63684;47.964;11.186;2023-07-09T12:20:49;7.70;;;3.00;;
75096;SDS011;63684;47.964;11.186;2023-07-09T12:23:22;6.65;;;3.08;;
75096;SDS011;63684;47.964;11.186;2023-07-09T12:25:49;4.20;;;3.00;;
75096;SDS011;63684;47.964;11.186;2023-07-09T12:28:15;4.28;;;3.05;;
75096;SDS011;63684;47.964;11.186;2023-07-09T12:30:48;5.85;;;3.05;;
75096;SDS011;63684;47.964;11.186;2023-07-09T12:33:18;6.35;;;2.65;;
75096;SDS011;63684;47.964;11.186;2023-07-09T12:35:45;3.95;;;2.75;;
75096;SDS011;63684;47.964;11.186;2023-07-09T12:38:18;6.20;;;3.00;;
75096;SDS011;63684;47.964;11.186;2023-07-09T12:40:45;5.78;;;3.17;;
75096;SDS011;63684;47.964;11.186;2023-07-09T12:43:12;4.93;;;3.00;;
75096;SDS011;63684;47.964;11.186;2023-07-09T12:45:37;4.28;;;3.08;;
75096;SDS011;63684;47.964;11.186;2023-07-09T12:48:03;8.68;;;3.20;;
75096;SDS011;63684;47.964;11.186;2023-07-09T12:53:13;7.07;;;3.38;;
75096;SDS011;63684;47.964;11.186;2023-07-09T12:55:40;4.43;;;2.92;;
75096;SDS011;63684;47.964;11.186;2023-07-09T12:58:10;5.93;;;3.00;;
75096;SDS011;63684;47.964;11.186;2023-07-09T13:00:37;4.95;;;2.58;;
75096;SDS011;63684;47.964;11.186;2023-07-09T13:03:02;5.78;;;2.70;;
75096;SDS011;63684;47.964;11.186;2023-07-09T13:05:28;5.72;;;2.83;;
75096;SDS011;63684;47.964;11.186;2023-07-09T13:07:57;7.53;;;3.08;;
75096;SDS011;63684;47.964;11.186;2023-07-09T13:10:29;4.45;;;3.00;;
75096;SDS011;63684;47.964;11.186;2023-07-09T13:13:02;3.15;;;2.50;;
75096;SDS011;63684;47.964;11.186;2023-07-09T13:18:03;5.72;;;2.88;;
75096;SDS011;63684;47.964;11.186;2023-07-09T13:20:31;6.10;;;3.08;;
75096;SDS011;63684;47.964;11.186;2023-07-09T13:22:57;4.22;;;2.78;;
75096;SDS011;63684;47.964;11.186;2023-07-09T13:25:23;6.30;;;2.95;;
75096;SDS011;63684;47.964;11.186;2023-07-09T13:27:49;4.85;;;2.67;;
75096;SDS011;63684;47.964;11.186;2023-07-09T13:30:15;8.02;;;3.08;;
75096;SDS011;63684;47.964;11.186;2023-07-09T13:32:40;5.10;;;2.80;;
75096;SDS011;63684;47.964;11.186;2023-07-09T13:35:13;5.13;;;2.97;;
75096;SDS011;63684;47.964;11.186;2023-07-09T13:37:43;6.88;;;3.20;;
75096;SDS011;63684;47.964;11.186;2023-07-09T13:40:10;5.93;;;3.08;;
75096;SDS011;63684;47.964;11.186;2023-07-09T13:42:36;4.60;;;2.72;;
75096;SDS011;63684;47.964;11.186;2023-07-09T13:45:01;5.95;;;3.08;;
75096;SDS011;63684;47.964;11.186;2023-07-09T13:47:27;9.25;;;3.35;;
75096;SDS011;63684;47.964;11.186;2023-07-09T13:49:53;9.23;;;3.65;;
75096;SDS011;63684;47.964;11.186;2023-07-09T13:52:19;5.15;;;2.70;;
75096;SDS011;63684;47.964;11.186;2023-07-09T13:54:48;5.22;;;2.90;;
75096;SDS011;63684;47.964;11.186;2023-07-09T13:57:15;8.45;;;6.38;;
75096;SDS011;63684;47.964;11.186;2023-07-09T13:59:42;20.98;;;11.23;;
75096;SDS011;63684;47.964;11.186;2023-07-09T14:02:19;13.18;;;8.95;;
75096;SDS011;63684;47.964;11.186;2023-07-09T14:04:49;5.10;;;3.47;;
75096;SDS011;63684;47.964;11.186;2023-07-09T14:07:25;5.50;;;3.03;;
75096;SDS011;63684;47.964;11.186;2023-07-09T14:09:51;5.38;;;3.15;;
75096;SDS011;63684;47.964;11.186;2023-07-09T14:12:16;4.55;;;3.13;;
75096;SDS011;63684;47.964;11.186;2023-07-09T14:14:42;6.93;;;3.95;;
75096;SDS011;63684;47.964;11.186;2023-07-09T14:17:12;5.90;;;3.00;;
75096;SDS011;63684;47.964;11.186;2023-07-09T14:19:38;10.57;;;3.35;;
75096;SDS011;63684;47.964;11.186;2023-07-09T14:22:04;5.78;;;2.85;;
75096;SDS011;63684;47.964;11.186;2023-07-09T14:24:51;6.13;;;3.10;;
75096;SDS011;63684;47.964;11.186;2023-07-09T14:27:17;6.30;;;3.17;;
75096;SDS011;63684;47.964;11.186;2023-07-09T14:29:43;13.45;;;4.30;;
75096;SDS011;63684;47.964;11.186;2023-07-09T14:32:21;5.53;;;2.35;;
75096;SDS011;63684;47.964;11.186;2023-07-09T14:34:55;6.07;;;2.92;;
75096;SDS011;63684;47.964;11.186;2023-07-09T14:37:20;4.88;;;3.00;;
75096;SDS011;63684;47.964;11.186;2023-07-09T14:39:46;5.10;;;2.83;;
75096;SDS011;63684;47.964;11.186;2023-07-09T14:42:12;3.72;;;2.60;;
75096;SDS011;63684;47.964;11.186;2023-07-09T14:44:37;3.33;;;2.60;;
75096;SDS011;63684;47.964;11.186;2023-07-09T14:47:03;7.80;;;2.78;;
75096;SDS011;63684;47.964;11.186;2023-07-09T14:49:29;4.53;;;2.65;;
75096;SDS011;63684;47.964;11.186;2023-07-09T14:51:56;5.78;;;2.92;;
75096;SDS011;63684;47.964;11.186;2023-07-09T14:56:52;5.45;;;2.75;;
75096;SDS011;63684;47.964;11.186;2023-07-09T14:59:18;6.88;;;2.75;;
75096;SDS011;63684;47.964;11.186;2023-07-09T15:01:44;6.10;;;3.05;;
75096;SDS011;63684;47.964;11.186;2023-07-09T15:04:21;4.95;;;3.33;;
75096;SDS011;63684;47.964;11.186;2023-07-09T15:06:53;7.80;;;3.20;;
75096;SDS011;63684;47.964;11.186;2023-07-09T15:09:19;4.85;;;2.70;;
75096;SDS011;63684;47.964;11.186;2023-07-09T15:11:51;5.22;;;3.13;;
75096;SDS011;63684;47.964;11.186;2023-07-09T15:14:17;4.80;;;2.92;;
75096;SDS011;63684;47.964;11.186;2023-07-09T15:16:43;5.45;;;3.45;;
75096;SDS011;63684;47.964;11.186;2023-07-09T15:19:18;7.53;;;3.03;;
75096;SDS011;63684;47.964;11.186;2023-07-09T15:21:45;3.70;;;2.72;;
75096;SDS011;63684;47.964;11.186;2023-07-09T15:24:11;4.65;;;2.72;;
75096;SDS011;63684;47.964;11.186;2023-07-09T15:26:42;4.13;;;3.17;;
75096;SDS011;63684;47.964;11.186;2023-07-09T15:29:14;5.68;;;2.97;;
75096;SDS011;63684;47.964;11.186;2023-07-09T15:31:40;5.80;;;3.35;;
75096;SDS011;63684;47.964;11.186;2023-07-09T15:34:05;9.05;;;3.53;;
75096;SDS011;63684;47.964;11.186;2023-07-09T15:36:31;4.97;;;3.38;;
75096;SDS011;63684;47.964;11.186;2023-07-09T15:38:57;10.82;;;7.28;;
75096;SDS011;63684;47.964;11.186;2023-07-09T15:41:22;6.32;;;3.00;;
75096;SDS011;63684;47.964;11.186;2023-07-09T15:43:48;6.95;;;3.10;;